Time;durP1;ratioP1;P1;durP2;ratioP2;P2;SDS_P1;SDS_P2;PMS_P1;PMS_P2;Temp;Humidity;BMP_temperature;BMP_pressure;BME280_temperature;BME280_humidity;BME280_pressure;Samples;Min_cycle;Max_cycle;Signal;HPM_P1;HPM_P2
2022/10/15 00:01:24;;;;;;;;;;;;;;;12.45;93.73;99993.69;4460327;31;1588297;-77
2022/10/15 00:04:03;;;;;;;;;;;;;;;12.08;94.21;99994.91;4449535;32;791632;-77
2022/10/15 00:06:42;;;;;;;;;;;;;;;12.13;94.42;100001.09;4440387;32;1581217;-77
2022/10/15 00:09:20;;;;;;;;;;;;;;;11.75;95.22;100002.53;4474380;31;850020;-77
2022/10/15 00:11:59;;;;;;;;;;;;;;;12.26;94.94;99995.84;4450879;32;793035;-79
2022/10/15 00:14:37;;;;;;;;;;;;;;;12.24;94.46;99992.59;4438994;32;814198;-77
2022/10/15 00:17:16;;;;;;;;;;;;;;;11.80;97.49;99994.97;4449085;32;919836;-77
2022/10/15 00:19:55;;;;;;;;;;;;;;;11.52;97.87;99990.69;4458494;32;807692;-77
2022/10/15 00:22:33;;;;;;;;;;;;;;;11.74;98.82;100006.41;4472273;31;737029;-77
2022/10/15 00:25:12;;;;;;;;;;;;;;;12.25;95.62;99996.97;4490536;31;791350;-77
2022/10/15 00:27:49;;;;;;;;;;;;;;;11.86;96.24;99995.72;4437898;32;810678;-77
2022/10/15 00:30:28;;;;;;;;;;;;;;;12.07;96.43;99996.84;4453637;32;799245;-77
2022/10/15 00:33:07;;;;;;;;;;;;;;;11.65;97.48;99998.09;4473827;31;757413;-77
2022/10/15 00:35:45;;;;;;;;;;;;;;;12.23;96.24;99983.53;4474894;31;746710;-77
2022/10/15 00:38:24;;;;;;;;;;;;;;;11.88;96.82;99985.22;4460403;32;800347;-77
2022/10/15 00:41:02;;;;;;;;;;;;;;;12.12;96.17;99983.00;4453125;32;796601;-77
2022/10/15 00:43:44;;;;;;;;;;;;;;;12.08;95.89;99981.19;4452585;31;1005226;-77
2022/10/15 00:46:48;;;;;;;;;;;;;;;11.50;97.62;99988.28;4453874;32;799815;-77
2022/10/15 00:49:29;;;;;;;;;;;;;;;12.20;96.61;99973.19;4448858;32;802677;-77
2022/10/15 00:52:12;;;;;;;;;;;;;;;12.31;95.89;99965.50;4452837;32;797364;-77
2022/10/15 00:54:53;;;;;;;;;;;;;;;11.90;96.71;99967.34;4445059;32;853152;-77
2022/10/15 00:57:31;;;;;;;;;;;;;;;11.70;97.46;99963.09;4445394;32;801310;-77
2022/10/15 01:00:13;;;;;;;;;;;;;;;11.43;98.92;99965.94;4453216;32;791329;-77
2022/10/15 01:02:52;;;;;;;;;;;;;;;12.06;96.75;99965.00;4446786;32;799026;-77
2022/10/15 01:05:31;;;;;;;;;;;;;;;12.09;96.55;99967.12;4493752;31;791128;-77
2022/10/15 01:08:09;;;;;;;;;;;;;;;12.27;94.90;99962.56;4451465;32;830717;-77
2022/10/15 01:10:49;;;;;;;;;;;;;;;12.42;93.29;99961.34;4449665;32;794616;-77
2022/10/15 01:13:41;;;;;;;;;;;;;;;12.42;93.29;99961.34;4467418;32;33886;-77
2022/10/15 01:16:33;;;;;;;;;;;;;;;11.57;96.01;99960.41;4458785;32;34846;-77
2022/10/15 01:19:25;;;;;;;;;;;;;;;11.71;94.87;99963.91;4460182;32;35163;-77
2022/10/15 01:22:12;;;;;;;;;;;;;;;11.55;96.46;99966.19;4456723;32;34762;-76
2022/10/15 01:25:02;;;;;;;;;;;;;;;11.56;96.44;99958.78;4455204;32;34085;-77
2022/10/15 01:28:12;;;;;;;;;;;;;;;11.41;97.42;99962.66;4474253;32;34961;-76
2022/10/15 01:31:01;;;;;;;;;;;;;;;11.40;97.67;99958.31;4448316;32;34700;-76
2022/10/15 01:33:54;;;;;;;;;;;;;;;11.16;98.19;99959.38;4459847;32;34697;-77
2022/10/15 01:36:53;;;;;;;;;;;;;;;10.84;99.84;99951.25;4474071;32;34822;-77
2022/10/15 01:39:50;;;;;;;;;;;;;;;10.94;100.00;99945.59;4457865;32;36375;-76
2022/10/15 01:42:45;;;;;;;;;;;;;;;11.06;99.67;99948.63;4452921;32;36196;-76
2022/10/15 01:45:36;;;;;;;;;;;;;;;11.14;99.85;99947.09;4473626;32;34788;-76
2022/10/15 01:48:23;;;;;;;;;;;;;;;11.16;99.01;99948.41;4457549;32;33994;-76
2022/10/15 01:51:09;;;;;;;;;;;;;;;11.36;97.58;99952.63;4457715;32;34380;-76
2022/10/15 01:53:57;;;;;;;;;;;;;;;11.22;98.07;99946.38;4472587;32;35344;-76
2022/10/15 01:56:48;;;;;;;;;;;;;;;11.33;97.13;99947.78;4438582;32;34701;-77
2022/10/15 01:59:35;;;;;;;;;;;;;;;11.16;97.22;99953.91;4456507;32;34921;-77
2022/10/15 02:02:21;;;;;;;;;;;;;;;11.24;97.00;99944.94;4462551;32;35719;-76
2022/10/15 02:05:10;;;;;;;;;;;;;;;11.18;96.76;99950.84;4474654;32;35236;-77
2022/10/15 02:07:56;;;;;;;;;;;;;;;11.01;97.24;99951.47;4474960;32;35481;-77
2022/10/15 02:11:02;;;;;;;;;;;;;;;11.28;96.33;99953.38;4470898;32;34172;-77
2022/10/15 02:14:03;;;;;;;;;;;;;;;11.26;96.16;99956.41;4470585;32;34628;-76
2022/10/15 02:20:05;;;;;;;;;;;;;;;10.42;100.00;99950.44;4459940;32;34832;-77
2022/10/15 02:22:58;;;;;;;;;;;;;;;10.81;99.06;99952.69;4450007;32;32859;-77
2022/10/15 02:25:44;;;;;;;;;;;;;;;11.12;97.83;99957.53;4449082;32;34906;-77
2022/10/15 02:28:30;;;;;;;;;;;;;;;11.09;97.03;99952.69;4450635;32;36062;-77
2022/10/15 02:31:16;;;;;;;;;;;;;;;11.23;95.98;99943.31;4451164;32;34618;-76
2022/10/15 02:34:04;;;;;;;;;;;;;;;11.13;95.97;99954.50;4449684;32;34119;-76
2022/10/15 02:36:51;;;;;;;;;;;;;;;11.04;96.54;99939.87;4448856;32;35769;-76
2022/10/15 02:39:37;;;;;;;;;;;;;;;10.77;97.81;99935.25;4463434;32;35240;-76
2022/10/15 02:42:23;;;;;;;;;;;;;;;11.09;96.70;99931.53;4463932;32;34809;-76
2022/10/15 02:45:10;;;;;;;;;;;;;;;10.98;96.93;99930.94;4458995;32;34113;-76
2022/10/15 02:47:59;;;;;;;;;;;;;;;11.12;96.57;99930.94;4460163;32;34832;-79
2022/10/15 02:50:45;;;;;;;;;;;;;;;10.90;97.60;99939.91;4436755;32;36185;-79
2022/10/15 02:53:32;;;;;;;;;;;;;;;10.29;100.00;99936.41;4448860;32;35574;-79
2022/10/15 02:56:18;;;;;;;;;;;;;;;10.82;98.86;99931.59;4450315;32;35341;-79
2022/10/15 02:59:05;;;;;;;;;;;;;;;10.72;99.29;99936.12;4447713;32;35764;-79
2022/10/15 03:01:51;;;;;;;;;;;;;;;10.78;99.08;99932.19;4448310;32;36311;-80
2022/10/15 03:04:38;;;;;;;;;;;;;;;11.02;99.87;99921.00;4449004;32;34774;-79
2022/10/15 03:07:24;;;;;;;;;;;;;;;11.14;100.00;99923.22;4464339;32;34036;-79
2022/10/15 03:10:12;;;;;;;;;;;;;;;11.32;100.00;99915.16;4452281;32;34913;-80
2022/10/15 03:13:03;;;;;;;;;;;;;;;11.15;100.00;99915.78;4450570;32;34877;-79
2022/10/15 03:15:53;;;;;;;;;;;;;;;11.22;100.00;99917.00;4455539;32;34804;-79
2022/10/15 03:18:40;;;;;;;;;;;;;;;11.22;100.00;99925.22;4445943;32;34113;-79
2022/10/15 03:21:29;;;;;;;;;;;;;;;11.50;100.00;99925.16;4438737;32;34913;-79
2022/10/15 03:24:20;;;;;;;;;;;;;;;11.65;100.00;99915.75;4459894;32;35269;-79
2022/10/15 03:27:07;;;;;;;;;;;;;;;11.46;100.00;99915.91;4461001;32;34775;-79
2022/10/15 03:29:56;;;;;;;;;;;;;;;11.50;100.00;99914.19;4450486;32;34087;-79
2022/10/15 03:32:42;;;;;;;;;;;;;;;11.12;100.00;99922.69;4461832;32;35735;-80
2022/10/15 03:35:34;;;;;;;;;;;;;;;11.38;100.00;99922.94;4449947;32;35398;-79
2022/10/15 03:38:21;;;;;;;;;;;;;;;10.92;100.00;99923.94;4456987;32;35670;-79
2022/10/15 03:41:10;;;;;;;;;;;;;;;10.97;100.00;99925.78;4455386;32;34006;-79
2022/10/15 03:44:01;;;;;;;;;;;;;;;11.23;100.00;99926.84;4456163;32;34984;-79
2022/10/15 03:46:48;;;;;;;;;;;;;;;11.33;100.00;99933.25;4450227;32;35179;-79
2022/10/15 03:49:36;;;;;;;;;;;;;;;11.24;100.00;99928.50;4443388;32;35388;-79
2022/10/15 03:52:24;;;;;;;;;;;;;;;10.96;100.00;99927.72;4464741;32;34702;-79
2022/10/15 03:55:16;;;;;;;;;;;;;;;11.50;100.00;99925.16;4455176;32;34928;-79
2022/10/15 03:58:03;;;;;;;;;;;;;;;11.32;100.00;99931.59;4443491;32;35246;-79
2022/10/15 04:00:51;;;;;;;;;;;;;;;11.20;100.00;99932.16;4450243;32;34872;-79
2022/10/15 04:03:38;;;;;;;;;;;;;;;11.24;99.77;99927.66;4461514;32;35000;-79
2022/10/15 04:06:25;;;;;;;;;;;;;;;11.23;100.00;99921.34;4454297;32;35712;-79
2022/10/15 04:09:14;;;;;;;;;;;;;;;11.20;99.87;99921.16;4464759;32;36331;-79
2022/10/15 04:12:01;;;;;;;;;;;;;;;11.08;100.00;99918.16;4449978;32;35025;-79
2022/10/15 04:14:49;;;;;;;;;;;;;;;10.61;100.00;99912.78;4459224;32;34010;-79
2022/10/15 04:17:36;;;;;;;;;;;;;;;10.71;100.00;99918.09;4454898;32;34882;-79
2022/10/15 04:20:24;;;;;;;;;;;;;;;10.75;100.00;99913.59;4454216;32;35279;-79
2022/10/15 04:23:10;;;;;;;;;;;;;;;9.16;100.00;99915.50;4432193;32;35525;-79
2022/10/15 04:25:59;;;;;;;;;;;;;;;9.55;100.00;99916.28;4432552;32;33982;-79
2022/10/15 04:28:47;;;;;;;;;;;;;;;9.68;100.00;99921.00;4445654;32;34912;-80
2022/10/15 04:31:37;;;;;;;;;;;;;;;10.17;100.00;99922.38;4438075;32;36273;-79
2022/10/15 04:34:23;;;;;;;;;;;;;;;10.20;100.00;99929.97;4443068;32;34740;-79
2022/10/15 04:37:12;;;;;;;;;;;;;;;9.66;100.00;99926.78;4445106;32;34734;-79
2022/10/15 04:40:00;;;;;;;;;;;;;;;8.99;100.00;99943.31;4443191;32;35688;-80
2022/10/15 04:42:47;;;;;;;;;;;;;;;9.54;100.00;99931.91;4443476;32;35451;-80
2022/10/15 04:45:38;;;;;;;;;;;;;;;10.09;100.00;99934.00;4454679;32;35595;-79
2022/10/15 04:48:29;;;;;;;;;;;;;;;10.39;100.00;99937.34;4458402;32;34846;-80
2022/10/15 04:51:26;;;;;;;;;;;;;;;10.58;98.40;99933.41;4432104;32;35096;-80
2022/10/15 04:54:23;;;;;;;;;;;;;;;10.38;99.48;99932.97;4454731;32;35307;-80
2022/10/15 04:57:12;;;;;;;;;;;;;;;10.32;100.00;99930.31;4454664;32;34757;-80
2022/10/15 05:00:01;;;;;;;;;;;;;;;10.45;99.65;99927.94;4454704;32;34155;-80
2022/10/15 05:02:52;;;;;;;;;;;;;;;10.31;98.01;99936.94;4454591;32;35001;-79
2022/10/15 05:05:39;;;;;;;;;;;;;;;10.34;98.74;99936.31;4462120;32;35313;-79
2022/10/15 05:08:33;;;;;;;;;;;;;;;9.61;100.00;99936.97;4458982;32;34766;-79
2022/10/15 05:11:22;;;;;;;;;;;;;;;10.07;100.00;99941.69;4442804;32;34094;-79
2022/10/15 05:14:14;;;;;;;;;;;;;;;10.08;100.00;99935.13;4450384;32;34934;-79
2022/10/15 05:17:08;;;;;;;;;;;;;;;10.02;100.00;99930.88;4438757;32;35173;-79
2022/10/15 05:20:03;;;;;;;;;;;;;;;9.66;100.00;99937.72;4446716;32;34839;-79
2022/10/15 05:22:54;;;;;;;;;;;;;;;9.55;100.00;99943.62;4465872;32;34126;-79
2022/10/15 05:25:50;;;;;;;;;;;;;;;9.30;100.00;99940.16;4455456;32;34926;-79
2022/10/15 05:31:49;;;;;;;;;;;;;;;10.00;100.00;99944.84;4455355;32;34713;-79
2022/10/15 05:34:39;;;;;;;;;;;;;;;10.05;100.00;99943.94;4447546;32;34005;-79
2022/10/15 05:37:29;;;;;;;;;;;;;;;10.53;98.97;99936.25;4464333;32;35017;-79
2022/10/15 05:40:17;;;;;;;;;;;;;;;10.60;98.22;99935.84;4453160;32;35400;-79
2022/10/15 05:43:12;;;;;;;;;;;;;;;10.70;97.57;99919.22;4445342;32;35514;-79
2022/10/15 05:46:00;;;;;;;;;;;;;;;10.60;98.04;99924.87;4442115;32;34852;-80
2022/10/15 05:48:52;;;;;;;;;;;;;;;10.62;98.28;99936.38;4458213;32;35938;-79
2022/10/15 05:51:41;;;;;;;;;;;;;;;10.59;98.35;99936.97;4447642;32;35633;-79
2022/10/15 05:54:49;;;;;;;;;;;;;;;10.61;98.95;99934.72;4446648;32;34785;-79
2022/10/15 05:57:41;;;;;;;;;;;;;;;10.42;100.00;99944.97;4462549;32;34112;-79
2022/10/15 06:00:29;;;;;;;;;;;;;;;10.50;100.00;99941.50;4448900;32;35811;-79
2022/10/15 06:03:17;;;;;;;;;;;;;;;10.56;100.00;99934.84;4456970;32;35212;-79
2022/10/15 06:06:04;;;;;;;;;;;;;;;10.64;100.00;99939.59;4465241;32;34781;-79
2022/10/15 06:08:57;;;;;;;;;;;;;;;10.97;100.00;99940.31;4454437;32;33781;-79
2022/10/15 06:11:47;;;;;;;;;;;;;;;10.82;100.00;99946.09;4446307;32;34924;-79
2022/10/15 06:14:39;;;;;;;;;;;;;;;10.90;100.00;99950.03;4450812;32;36212;-79
2022/10/15 06:17:26;;;;;;;;;;;;;;;11.16;100.00;99959.38;4460594;32;34804;-79
2022/10/15 06:20:17;;;;;;;;;;;;;;;10.85;100.00;99969.34;4457418;32;34966;-79
2022/10/15 06:23:23;;;;;;;;;;;;;;;11.32;100.00;99979.03;4462387;32;34894;-78
2022/10/15 06:26:12;;;;;;;;;;;;;;;11.20;100.00;99970.53;4437334;32;36182;-79
2022/10/15 06:29:03;;;;;;;;;;;;;;;11.30;100.00;99969.50;4449471;32;35517;-78
2022/10/15 06:32:09;;;;;;;;;;;;;;;11.75;100.00;99977.81;4462055;32;34828;-79
2022/10/15 06:35:15;;;;;;;;;;;;;;;11.42;100.00;99973.34;4452172;32;34919;-79
2022/10/15 06:38:03;;;;;;;;;;;;;;;12.00;100.00;99981.94;4459368;32;35300;-79
2022/10/15 06:40:53;;;;;;;;;;;;;;;11.87;100.00;99976.19;4461485;32;34855;-79
2022/10/15 06:43:41;;;;;;;;;;;;;;;12.08;100.00;99970.19;4460445;32;34946;-79
2022/10/15 06:46:31;;;;;;;;;;;;;;;11.95;100.00;99982.84;4463167;32;35020;-79
2022/10/15 06:49:23;;;;;;;;;;;;;;;11.87;100.00;99986.37;4448375;32;35120;-79
2022/10/15 06:52:19;;;;;;;;;;;;;;;12.07;100.00;99982.31;4461634;32;34923;-79
2022/10/15 06:55:09;;;;;;;;;;;;;;;12.18;100.00;99988.34;4466685;32;33031;-79
2022/10/15 06:57:55;;;;;;;;;;;;;;;11.92;100.00;99994.47;4436778;32;34528;-79
2022/10/15 07:00:48;;;;;;;;;;;;;;;11.98;100.00;99996.00;4448941;32;35310;-79
2022/10/15 07:03:43;;;;;;;;;;;;;;;12.14;100.00;100004.66;4462612;32;34803;-79
2022/10/15 07:06:33;;;;;;;;;;;;;;;12.13;100.00;100014.84;4456509;32;34060;-79
2022/10/15 07:09:24;;;;;;;;;;;;;;;11.89;100.00;100014.31;4462126;32;34650;-79
2022/10/15 07:12:15;;;;;;;;;;;;;;;12.33;100.00;100016.25;4463052;32;36114;-78
2022/10/15 07:15:06;;;;;;;;;;;;;;;12.21;100.00;100013.28;4449634;32;34740;-79
2022/10/15 07:18:00;;;;;;;;;;;;;;;12.27;100.00;100006.53;4462634;32;33881;-78
2022/10/15 07:20:48;;;;;;;;;;;;;;;12.64;100.00;100006.41;4453725;32;34449;-79
2022/10/15 07:23:38;;;;;;;;;;;;;;;12.52;100.00;100002.31;4463777;32;34880;-79
2022/10/15 07:26:37;;;;;;;;;;;;;;;12.51;100.00;100006.19;4449267;32;33615;-79
2022/10/15 07:29:27;;;;;;;;;;;;;;;12.97;100.00;99999.44;4457763;32;34103;-79
2022/10/15 07:32:23;;;;;;;;;;;;;;;13.30;100.00;100001.03;4449476;32;35425;-77
2022/10/15 07:35:28;;;;;;;;;;;;;;;13.39;100.00;99985.34;4461593;32;35296;-77
2022/10/15 07:38:24;;;;;;;;;;;;;;;12.97;100.00;99999.44;4458924;32;35591;-78
2022/10/15 07:41:17;;;;;;;;;;;;;;;13.22;100.00;99995.13;4449081;32;33745;-76
2022/10/15 07:44:11;;;;;;;;;;;;;;;13.66;100.00;99995.22;4450428;32;33845;-78
2022/10/15 07:46:57;;;;;;;;;;;;;;;13.70;100.00;99991.53;4436786;32;35067;-77
2022/10/15 07:49:52;;;;;;;;;;;;;;;14.20;100.00;99989.38;4448381;32;34678;-79
2022/10/15 07:52:38;;;;;;;;;;;;;;;13.91;100.00;99994.44;4447486;32;34405;-78
2022/10/15 07:55:30;;;;;;;;;;;;;;;14.47;99.52;99996.47;4427417;32;34893;-77
2022/10/15 07:58:17;;;;;;;;;;;;;;;14.42;100.00;99991.13;4435368;32;35802;-77
2022/10/15 08:01:11;;;;;;;;;;;;;;;14.53;99.99;99997.94;4436396;32;34398;-78
2022/10/15 08:04:14;;;;;;;;;;;;;;;13.84;100.00;99998.84;4443901;32;32422;-78
2022/10/15 08:07:03;;;;;;;;;;;;;;;14.30;100.00;100011.91;4437233;32;34926;-78
2022/10/15 08:09:58;;;;;;;;;;;;;;;15.02;98.20;100007.50;4446365;32;33542;-77
2022/10/15 08:12:46;;;;;;;;;;;;;;;15.19;94.92;100014.06;4433822;32;35441;-77
2022/10/15 08:15:34;;;;;;;;;;;;;;;14.92;95.82;100020.88;4437632;32;33562;-76
2022/10/15 08:18:23;;;;;;;;;;;;;;;14.58;98.65;100011.56;4433645;32;35865;-76
2022/10/15 08:21:11;;;;;;;;;;;;;;;15.01;95.87;100007.84;4442984;32;35766;-76
2022/10/15 08:24:00;;;;;;;;;;;;;;;15.37;94.94;100012.03;4435781;32;35883;-79
2022/10/15 08:26:53;;;;;;;;;;;;;;;15.16;95.34;100015.56;4437105;32;34870;-78
2022/10/15 08:29:54;;;;;;;;;;;;;;;15.13;95.75;100013.47;4436318;32;35768;-79
2022/10/15 08:32:41;;;;;;;;;;;;;;;14.92;95.56;100012.59;4436463;32;35571;-79
2022/10/15 08:35:34;;;;;;;;;;;;;;;15.73;93.88;100012.28;4434595;32;34682;-80
2022/10/15 08:38:23;;;;;;;;;;;;;;;15.85;92.50;100007.97;4436746;32;33818;-79
2022/10/15 08:41:27;;;;;;;;;;;;;;;15.52;92.01;100012.25;4432923;32;34846;-79
2022/10/15 08:44:26;;;;;;;;;;;;;;;15.78;91.22;100007.72;4425456;32;34905;-79
2022/10/15 08:47:40;;;;;;;;;;;;;;;16.13;88.65;100008.25;4434798;32;34141;-80
2022/10/15 08:50:28;;;;;;;;;;;;;;;15.90;88.88;100014.13;4434555;32;32477;-79
2022/10/15 08:53:19;;;;;;;;;;;;;;;16.23;87.27;100015.31;4446944;32;35695;-78
2022/10/15 08:56:14;;;;;;;;;;;;;;;16.29;86.13;100014.75;4437042;32;35683;-79
2022/10/15 08:59:13;;;;;;;;;;;;;;;16.72;84.97;100013.50;4437358;32;34794;-78
2022/10/15 09:05:26;;;;;;;;;;;;;;;17.03;82.37;100010.22;4446438;32;35047;-79
2022/10/15 09:08:13;;;;;;;;;;;;;;;17.03;83.12;100007.44;4434686;32;34457;-79
2022/10/15 09:11:13;;;;;;;;;;;;;;;16.92;82.99;100000.75;4429277;32;34141;-79
2022/10/15 09:14:09;;;;;;;;;;;;;;;17.44;80.70;100005.56;4422701;32;33991;-79
2022/10/15 09:16:59;;;;;;;;;;;;;;;17.60;79.10;100024.28;4431768;32;35907;-79
2022/10/15 09:19:49;;;;;;;;;;;;;;;17.62;78.42;100027.50;4425039;32;33649;-78
2022/10/15 09:22:47;;;;;;;;;;;;;;;17.75;77.68;100023.53;4428663;32;34815;-78
2022/10/15 09:25:37;;;;;;;;;;;;;;;17.46;79.81;100036.50;4432375;32;34151;-78
2022/10/15 09:28:30;;;;;;;;;;;;;;;18.16;77.56;100032.72;4431012;32;34855;-78
2022/10/15 09:31:27;;;;;;;;;;;;;;;17.93;78.72;100037.97;4438860;32;35003;-78
2022/10/15 09:34:27;;;;;;;;;;;;;;;17.59;79.77;100034.56;4433777;32;34862;-78
2022/10/15 09:37:14;;;;;;;;;;;;;;;18.27;77.62;100035.75;4430561;32;34010;-78
2022/10/15 09:40:18;;;;;;;;;;;;;;;17.76;78.62;100034.28;4433089;32;34891;-78
2022/10/15 09:43:07;;;;;;;;;;;;;;;17.73;78.31;100028.62;4433372;32;34681;-79
2022/10/15 09:46:00;;;;;;;;;;;;;;;18.28;76.50;100020.75;4428455;32;35314;-79
2022/10/15 09:49:17;;;;;;;;;;;;;;;18.64;74.89;100026.13;4432788;32;32404;-78
2022/10/15 09:52:09;;;;;;;;;;;;;;;18.69;73.54;100025.03;4431439;32;34878;-78
2022/10/15 09:55:09;;;;;;;;;;;;;;;18.93;71.54;100012.22;4432825;32;33811;-78
2022/10/15 09:58:12;;;;;;;;;;;;;;;19.12;72.57;100009.50;4446030;32;35486;-78
2022/10/15 10:01:04;;;;;;;;;;;;;;;19.18;70.20;100016.41;4431931;32;34907;-79
2022/10/15 10:04:11;;;;;;;;;;;;;;;19.51;68.20;100006.84;4443956;32;35322;-79
2022/10/15 10:07:02;;;;;;;;;;;;;;;19.37;68.59;100007.31;4444364;32;35234;-78
2022/10/15 10:09:53;;;;;;;;;;;;;;;19.55;66.58;100016.06;4438659;32;35577;-79
2022/10/15 10:12:40;;;;;;;;;;;;;;;19.82;67.30;100017.09;4438025;32;34970;-78
2022/10/15 10:15:29;;;;;;;;;;;;;;;19.90;65.18;100004.16;4440504;32;34967;-78
2022/10/15 10:18:37;;;;;;;;;;;;;;;19.50;66.95;99997.72;4446264;32;35140;-79
2022/10/15 10:21:28;;;;;;;;;;;;;;;19.78;66.08;100002.31;4442012;32;34664;-78
2022/10/15 10:24:29;;;;;;;;;;;;;;;19.96;66.07;100005.47;4444848;32;32598;-79
2022/10/15 10:27:39;;;;;;;;;;;;;;;19.38;68.71;100002.56;4449959;32;34423;-79
2022/10/15 10:30:26;;;;;;;;;;;;;;;19.46;66.92;99998.78;4439736;32;35775;-79
2022/10/15 10:33:44;;;;;;;;;;;;;;;19.76;66.25;99997.12;4447247;32;33185;-79
2022/10/15 10:36:33;;;;;;;;;;;;;;;19.79;65.57;99994.78;4445558;32;33999;-79
2022/10/15 10:39:25;;;;;;;;;;;;;;;19.66;68.49;99988.53;4430073;32;35065;-79
2022/10/15 10:42:22;;;;;;;;;;;;;;;20.10;63.83;99977.16;4440608;32;35254;-79
2022/10/15 10:45:17;;;;;;;;;;;;;;;19.95;64.73;99973.25;4433256;32;34823;-79
2022/10/15 10:48:19;;;;;;;;;;;;;;;20.12;63.28;99972.84;4443007;32;34043;-79
2022/10/15 10:51:11;;;;;;;;;;;;;;;19.97;62.08;99976.47;4440634;32;35582;-79
2022/10/15 10:54:16;;;;;;;;;;;;;;;20.35;61.99;99972.03;4444558;32;36224;-80
2022/10/15 10:57:08;;;;;;;;;;;;;;;20.14;60.35;99969.66;4444991;32;34418;-79
2022/10/15 11:00:11;;;;;;;;;;;;;;;19.45;65.58;99974.94;4442619;32;34098;-79
2022/10/15 11:03:01;;;;;;;;;;;;;;;19.69;65.63;99971.91;4446627;32;34351;-80
2022/10/15 11:06:01;;;;;;;;;;;;;;;19.95;64.76;99965.75;4425795;32;34680;-80
2022/10/15 11:09:16;;;;;;;;;;;;;;;19.70;65.10;99970.78;4444535;32;35395;-80
2022/10/15 11:12:21;;;;;;;;;;;;;;;19.94;63.13;99971.66;4442069;32;35533;-80
2022/10/15 11:15:29;;;;;;;;;;;;;;;19.92;63.82;99960.09;4441682;32;34493;-79
2022/10/15 11:18:20;;;;;;;;;;;;;;;20.11;63.19;99960.06;4440947;32;35180;-80
2022/10/15 11:21:14;;;;;;;;;;;;;;;20.14;62.29;99956.56;4443450;32;35332;-80
2022/10/15 11:24:16;;;;;;;;;;;;;;;20.02;63.00;99953.16;4457066;32;34071;-80
2022/10/15 11:27:10;;;;;;;;;;;;;;;19.45;64.85;99939.63;4456626;32;34999;-80
2022/10/15 11:30:04;;;;;;;;;;;;;;;19.16;65.74;99931.81;4456908;32;35708;-79
2022/10/15 11:36:23;;;;;;;;;;;;;;;19.32;65.05;99924.25;4443816;32;33557;-81
2022/10/15 11:42:19;;;;;;;;;;;;;;;19.17;65.00;99923.13;4449569;32;36171;-80
2022/10/15 11:45:19;;;;;;;;;;;;;;;19.51;63.97;99915.94;4437320;32;34813;-81
2022/10/15 11:48:17;;;;;;;;;;;;;;;19.28;65.50;99915.84;4445532;32;34038;-81
2022/10/15 11:51:16;;;;;;;;;;;;;;;19.86;62.60;99914.28;4432042;32;34473;-81
2022/10/15 11:54:12;;;;;;;;;;;;;;;20.03;62.52;99908.25;4447224;32;36269;-81
2022/10/15 11:57:01;;;;;;;;;;;;;;;19.60;64.47;99906.59;4450110;32;35207;-81
2022/10/15 11:59:54;;;;;;;;;;;;;;;20.24;61.89;99907.88;4450785;32;33985;-81
2022/10/15 12:02:46;;;;;;;;;;;;;;;19.64;64.28;99919.41;4444749;32;34821;-81
2022/10/15 12:05:53;;;;;;;;;;;;;;;19.67;62.49;99915.09;4459542;32;35220;-81
2022/10/15 12:08:50;;;;;;;;;;;;;;;19.66;64.58;99905.94;4441054;32;35433;-80
2022/10/15 12:11:51;;;;;;;;;;;;;;;19.84;63.50;99905.53;4437259;32;34035;-81
2022/10/15 12:14:59;;;;;;;;;;;;;;;20.26;63.70;99904.72;4452506;32;35316;-81
2022/10/15 12:20:54;;;;;;;;;;;;;;;20.07;63.18;99897.22;4460014;32;34828;-82
2022/10/15 12:23:44;;;;;;;;;;;;;;;19.96;60.16;99895.03;4458475;32;34246;-81
2022/10/15 12:26:38;;;;;;;;;;;;;;;19.63;61.85;99889.97;4461618;32;35544;-80
2022/10/15 12:29:29;;;;;;;;;;;;;;;19.67;61.99;99890.91;4457472;32;34953;-82
2022/10/15 12:35:33;;;;;;;;;;;;;;;19.60;64.24;99901.03;4452018;32;32736;-81
2022/10/15 12:38:24;;;;;;;;;;;;;;;19.75;62.21;99898.22;4441899;32;36113;-81
2022/10/15 12:41:13;;;;;;;;;;;;;;;20.15;60.98;99894.22;4442491;32;35242;-80
2022/10/15 12:44:32;;;;;;;;;;;;;;;19.17;65.21;99900.91;4453111;32;35675;-81
2022/10/15 12:47:43;;;;;;;;;;;;;;;19.17;63.08;99898.12;4439514;32;34960;-81
2022/10/15 12:53:27;;;;;;;;;;;;;;;19.35;61.89;99878.25;4452761;32;36103;-81
2022/10/15 12:56:31;;;;;;;;;;;;;;;18.66;62.88;99884.22;4453863;32;34867;-81
2022/10/15 12:59:30;;;;;;;;;;;;;;;19.25;62.98;99879.66;4447227;32;34050;-82
2022/10/15 13:02:29;;;;;;;;;;;;;;;19.24;64.01;99878.03;4438882;32;36496;-81
2022/10/15 13:08:22;;;;;;;;;;;;;;;19.30;62.07;99873.81;4442366;32;34348;-80
2022/10/15 13:14:11;;;;;;;;;;;;;;;19.31;62.05;99884.53;4443120;32;34900;-80
2022/10/15 13:16:58;;;;;;;;;;;;;;;19.59;62.06;99891.88;4452269;32;34708;-80
2022/10/15 13:19:50;;;;;;;;;;;;;;;19.74;60.60;99893.81;4434004;32;34837;-80
2022/10/15 13:22:41;;;;;;;;;;;;;;;19.69;60.13;99887.72;4440585;32;35387;-80
2022/10/15 13:25:33;;;;;;;;;;;;;;;19.57;61.51;99883.09;4442346;32;34962;-80
2022/10/15 13:28:35;;;;;;;;;;;;;;;19.62;62.26;99891.16;4440599;32;35173;-80
2022/10/15 13:34:24;;;;;;;;;;;;;;;19.82;59.44;99878.06;4454717;32;34874;-80
2022/10/15 13:37:22;;;;;;;;;;;;;;;19.83;61.26;99881.66;4458358;32;35748;-80
2022/10/15 13:40:17;;;;;;;;;;;;;;;19.52;62.79;99889.78;4443728;32;34820;-80
2022/10/15 13:43:34;;;;;;;;;;;;;;;19.29;64.05;99891.63;4439094;32;34414;-80
2022/10/15 13:46:29;;;;;;;;;;;;;;;19.79;60.83;99887.16;4454845;32;33533;-80
2022/10/15 13:49:27;;;;;;;;;;;;;;;19.62;59.92;99891.16;4443171;32;35674;-80
2022/10/15 13:52:29;;;;;;;;;;;;;;;19.73;61.46;99894.97;4439595;32;35158;-81
2022/10/15 13:55:22;;;;;;;;;;;;;;;19.21;64.25;99900.97;4444010;32;35586;-80
2022/10/15 13:58:27;;;;;;;;;;;;;;;19.50;62.31;99894.09;4447433;32;34088;-80
2022/10/15 14:01:20;;;;;;;;;;;;;;;19.50;61.16;99899.63;4444963;32;35664;-80
2022/10/15 14:04:15;;;;;;;;;;;;;;;19.58;62.63;99893.06;4442972;32;34540;-80
2022/10/15 14:07:13;;;;;;;;;;;;;;;19.56;63.45;99889.84;4441328;32;34850;-80
2022/10/15 14:10:09;;;;;;;;;;;;;;;19.66;61.94;99882.91;4452979;32;34046;-80
2022/10/15 14:13:04;;;;;;;;;;;;;;;19.60;62.51;99887.91;4430763;32;35482;-81
2022/10/15 14:16:00;;;;;;;;;;;;;;;19.74;61.46;99881.88;4436335;32;35036;-80
2022/10/15 14:18:51;;;;;;;;;;;;;;;19.83;62.21;99884.44;4448595;32;34805;-80
2022/10/15 14:21:46;;;;;;;;;;;;;;;19.76;60.81;99877.56;4445214;32;34068;-80
2022/10/15 14:24:46;;;;;;;;;;;;;;;19.81;61.27;99884.00;4446416;32;35250;-80
2022/10/15 14:30:31;;;;;;;;;;;;;;;20.02;60.72;99878.06;4448620;32;34553;-80
2022/10/15 14:33:39;;;;;;;;;;;;;;;20.18;60.12;99875.97;4440757;32;32435;-80
2022/10/15 14:36:29;;;;;;;;;;;;;;;20.19;60.75;99866.44;4436940;32;34512;-80
2022/10/15 14:39:27;;;;;;;;;;;;;;;20.25;59.12;99864.16;4437971;32;36557;-80
2022/10/15 14:42:29;;;;;;;;;;;;;;;19.96;62.07;99864.44;4426055;32;34067;-81
2022/10/15 14:45:27;;;;;;;;;;;;;;;20.21;60.28;99856.56;4425018;32;33599;-80
2022/10/15 14:48:25;;;;;;;;;;;;;;;19.88;60.32;99853.56;4428507;32;34227;-80
2022/10/15 14:51:30;;;;;;;;;;;;;;;19.88;61.43;99861.91;4446518;32;33610;-80
2022/10/15 14:54:17;;;;;;;;;;;;;;;19.93;60.20;99865.19;4447412;32;33201;-80
2022/10/15 15:00:40;;;;;;;;;;;;;;;19.53;61.54;99873.91;4447444;32;34014;-80
2022/10/15 15:03:30;;;;;;;;;;;;;;;19.68;60.81;99875.81;4442545;32;35636;-80
2022/10/15 15:06:20;;;;;;;;;;;;;;;19.82;60.46;99872.50;4433243;32;34659;-80
2022/10/15 15:09:19;;;;;;;;;;;;;;;19.91;60.24;99870.31;4434498;32;34030;-80
2022/10/15 15:12:17;;;;;;;;;;;;;;;19.67;62.20;99882.56;4448082;32;35796;-80
2022/10/15 15:15:14;;;;;;;;;;;;;;;19.58;62.09;99878.34;4446292;32;35952;-80
2022/10/15 15:18:11;;;;;;;;;;;;;;;19.63;62.10;99881.63;4450337;32;33423;-80
2022/10/15 15:21:04;;;;;;;;;;;;;;;19.57;61.53;99891.44;4438694;32;33976;-80
2022/10/15 15:23:50;;;;;;;;;;;;;;;19.81;61.19;99893.16;4427030;32;34411;-80
2022/10/15 15:26:41;;;;;;;;;;;;;;;19.91;60.51;99900.09;4448007;32;35196;-80
2022/10/15 15:29:30;;;;;;;;;;;;;;;19.62;62.60;99891.16;4445391;32;35612;-81